Time;durP1;ratioP1;P1;durP2;ratioP2;P2;SDS_P1;SDS_P2;PMS_P1;PMS_P2;Temp;Humidity;BMP_temperature;BMP_pressure;BME280_temperature;BME280_humidity;BME280_pressure;Samples;Min_cycle;Max_cycle;Signal;HPM_P1;HPM_P2
2023/06/11 00:02:56;;;;;;;24.08;12.25;;;;;;;;;;10122165;28;20072;-69
2023/06/11 00:07:50;;;;;;;13.00;11.48;;;;;;;;;;10141344;28;20110;-70
2023/06/11 00:12:44;;;;;;;16.15;12.55;;;;;;;;;;10151400;28;20113;-69
2023/06/11 00:17:39;;;;;;;15.48;12.60;;;;;;;;;;10150860;28;20067;-69
2023/06/11 00:22:32;;;;;;;18.02;13.82;;;;;;;;;;10150694;28;20135;-69
2023/06/11 00:27:27;;;;;;;16.45;13.90;;;;;;;;;;10137278;28;20067;-68
2023/06/11 00:32:20;;;;;;;16.70;13.85;;;;;;;;;;10146513;28;20139;-69
2023/06/11 00:37:14;;;;;;;19.60;15.35;;;;;;;;;;10136710;28;20055;-69
2023/06/11 00:42:10;;;;;;;18.38;14.82;;;;;;;;;;10148587;28;20546;-69
2023/06/11 00:47:03;;;;;;;26.42;16.00;;;;;;;;;;10149825;28;20040;-69
2023/06/11 00:51:56;;;;;;;21.45;17.23;;;;;;;;;;10149635;28;20037;-66
2023/06/11 00:56:51;;;;;;;22.70;16.85;;;;;;;;;;10149847;28;20053;-67
2023/06/11 01:02:08;;;;;;;24.83;18.45;;;;;;;;;;10147785;28;20060;-67
2023/06/11 01:07:05;;;;;;;19.88;17.50;;;;;;;;;;10148197;28;20049;-66
2023/06/11 01:12:02;;;;;;;22.77;20.45;;;;;;;;;;10164084;28;20135;-69
2023/06/11 01:17:04;;;;;;;27.00;20.17;;;;;;;;;;10147633;28;20076;-69
2023/06/11 01:22:01;;;;;;;24.55;17.52;;;;;;;;;;10164323;28;20051;-69
2023/06/11 01:27:08;;;;;;;31.63;19.15;;;;;;;;;;10105721;28;20048;-69
2023/06/11 01:32:03;;;;;;;24.77;17.75;;;;;;;;;;10121725;28;20076;-69
2023/06/11 01:36:59;;;;;;;22.58;18.40;;;;;;;;;;10146185;28;20045;-69
2023/06/11 01:41:54;;;;;;;26.33;19.05;;;;;;;;;;10142718;28;20057;-69
2023/06/11 01:46:48;;;;;;;30.88;20.08;;;;;;;;;;10144318;28;20048;-68
2023/06/11 01:51:42;;;;;;;26.05;18.98;;;;;;;;;;10145450;28;20056;-69
2023/06/11 01:56:35;;;;;;;21.42;17.10;;;;;;;;;;10147618;28;20052;-69
2023/06/11 02:01:28;;;;;;;20.45;14.90;;;;;;;;;;10114621;28;20443;-69
2023/06/11 02:06:23;;;;;;;20.10;15.52;;;;;;;;;;10124178;28;20041;-69
2023/06/11 02:11:17;;;;;;;27.38;15.98;;;;;;;;;;10111264;28;20049;-68
2023/06/11 02:16:10;;;;;;;19.38;16.85;;;;;;;;;;10138772;28;20122;-69
2023/06/11 02:21:04;;;;;;;23.08;16.63;;;;;;;;;;10143294;28;20507;-68
2023/06/11 02:25:59;;;;;;;20.35;14.98;;;;;;;;;;10122021;28;20056;-68
2023/06/11 02:30:52;;;;;;;19.83;14.95;;;;;;;;;;10144845;28;20040;-69
2023/06/11 02:35:46;;;;;;;19.35;14.85;;;;;;;;;;10109904;28;20414;-69
2023/06/11 02:40:39;;;;;;;24.58;15.63;;;;;;;;;;10142265;28;20049;-68
2023/06/11 02:45:32;;;;;;;25.38;16.98;;;;;;;;;;10145051;28;20090;-68
2023/06/11 02:50:25;;;;;;;25.77;17.30;;;;;;;;;;10144064;28;20049;-69
2023/06/11 02:55:18;;;;;;;20.27;16.70;;;;;;;;;;10153457;28;20106;-69
2023/06/11 03:00:13;;;;;;;29.13;17.15;;;;;;;;;;10152298;28;20053;-69
2023/06/11 03:05:08;;;;;;;23.48;15.02;;;;;;;;;;10153912;28;20067;-69
2023/06/11 03:10:03;;;;;;;16.83;13.00;;;;;;;;;;10152491;28;20052;-68
2023/06/11 03:14:56;;;;;;;17.73;11.07;;;;;;;;;;10151692;28;20056;-69
2023/06/11 03:19:49;;;;;;;13.80;9.82;;;;;;;;;;10146343;28;20392;-68
2023/06/11 03:24:44;;;;;;;17.70;10.18;;;;;;;;;;10141007;28;20495;-68
2023/06/11 03:30:07;;;;;;;19.45;10.77;;;;;;;;;;10148045;28;20055;-69
2023/06/11 03:35:04;;;;;;;15.98;10.18;;;;;;;;;;10151825;28;20048;-68
2023/06/11 03:39:58;;;;;;;17.52;9.70;;;;;;;;;;10149674;28;20074;-69
2023/06/11 03:44:54;;;;;;;20.75;10.40;;;;;;;;;;10148502;28;20053;-69
2023/06/11 03:49:50;;;;;;;13.13;8.73;;;;;;;;;;10167882;28;20110;-68
2023/06/11 03:54:45;;;;;;;15.77;8.73;;;;;;;;;;10133255;28;20102;-69
2023/06/11 03:59:38;;;;;;;11.93;8.13;;;;;;;;;;10149760;28;20052;-68
2023/06/11 04:04:32;;;;;;;14.88;8.18;;;;;;;;;;10122309;28;20049;-68
2023/06/11 04:09:25;;;;;;;13.30;7.75;;;;;;;;;;10143222;28;20068;-68
2023/06/11 04:14:18;;;;;;;15.43;8.25;;;;;;;;;;10141902;28;20449;-69
2023/06/11 04:19:13;;;;;;;14.13;8.48;;;;;;;;;;10136132;28;20080;-69
2023/06/11 04:24:08;;;;;;;19.27;9.25;;;;;;;;;;10140870;28;20462;-69
2023/06/11 04:29:02;;;;;;;17.15;8.85;;;;;;;;;;10149218;28;20119;-70
2023/06/11 04:34:02;;;;;;;17.35;9.10;;;;;;;;;;10149104;28;20056;-69
2023/06/11 04:39:02;;;;;;;18.88;9.93;;;;;;;;;;10148731;28;20526;-68
2023/06/11 04:44:00;;;;;;;14.10;10.37;;;;;;;;;;10149029;28;20056;-68
2023/06/11 04:48:58;;;;;;;13.63;9.70;;;;;;;;;;10148772;28;20051;-68
2023/06/11 04:53:57;;;;;;;24.75;9.60;;;;;;;;;;10147829;28;20075;-69
2023/06/11 04:58:50;;;;;;;16.42;10.90;;;;;;;;;;10127199;28;20056;-69
2023/06/11 05:03:44;;;;;;;14.15;10.85;;;;;;;;;;10142856;28;20080;-69
2023/06/11 05:08:41;;;;;;;17.40;11.57;;;;;;;;;;10141540;28;20457;-69
2023/06/11 05:13:37;;;;;;;12.85;10.43;;;;;;;;;;10128573;28;20053;-69
2023/06/11 05:18:33;;;;;;;16.63;10.82;;;;;;;;;;10096702;28;20117;-69
2023/06/11 05:23:31;;;;;;;20.27;12.00;;;;;;;;;;10120933;28;20044;-69
2023/06/11 05:28:29;;;;;;;17.52;12.15;;;;;;;;;;10126649;28;20111;-69
2023/06/11 05:33:22;;;;;;;25.17;15.48;;;;;;;;;;10144309;28;20057;-68
2023/06/11 05:38:17;;;;;;;23.30;18.75;;;;;;;;;;10129608;28;20102;-69
2023/06/11 05:43:10;;;;;;;28.20;19.95;;;;;;;;;;10140529;28;20100;-68
2023/06/11 05:48:06;;;;;;;23.92;17.40;;;;;;;;;;10145916;28;20060;-68
2023/06/11 05:53:04;;;;;;;23.08;16.85;;;;;;;;;;10146326;28;20049;-69
2023/06/11 05:58:00;;;;;;;20.13;16.10;;;;;;;;;;10132990;28;20064;-69
2023/06/11 06:02:54;;;;;;;24.05;16.90;;;;;;;;;;10128033;28;20059;-69
2023/06/11 06:07:54;;;;;;;28.00;18.48;;;;;;;;;;10119864;28;20057;-70
2023/06/11 06:12:48;;;;;;;31.90;21.98;;;;;;;;;;10122357;28;20139;-68
2023/06/11 06:17:41;;;;;;;26.70;23.30;;;;;;;;;;10117957;28;20434;-69
2023/06/11 06:22:39;;;;;;;23.47;20.63;;;;;;;;;;10145532;28;20052;-69
2023/06/11 06:27:33;;;;;;;31.88;20.17;;;;;;;;;;10144600;28;20477;-70
2023/06/11 06:32:28;;;;;;;26.35;20.48;;;;;;;;;;10145235;28;20071;-69
2023/06/11 06:37:24;;;;;;;24.65;20.45;;;;;;;;;;10146008;28;20091;-69
2023/06/11 06:42:18;;;;;;;27.25;19.05;;;;;;;;;;10136077;28;20495;-69
2023/06/11 06:47:15;;;;;;;24.00;18.08;;;;;;;;;;10135271;28;20084;-69
2023/06/11 06:52:11;;;;;;;22.00;16.88;;;;;;;;;;10128190;28;20048;-69
2023/06/11 06:57:10;;;;;;;23.13;17.15;;;;;;;;;;10134258;28;20041;-68
2023/06/11 07:02:04;;;;;;;22.17;16.13;;;;;;;;;;10135433;28;20044;-69
2023/06/11 07:07:01;;;;;;;21.83;15.40;;;;;;;;;;10143565;28;20052;-70
2023/06/11 07:11:56;;;;;;;13.45;10.00;;;;;;;;;;10143455;28;20077;-69
2023/06/11 07:16:50;;;;;;;17.80;14.52;;;;;;;;;;10110914;28;20504;-69
2023/06/11 07:21:45;;;;;;;17.08;11.00;;;;;;;;;;10110758;28;20077;-69
2023/06/11 07:26:42;;;;;;;18.05;12.75;;;;;;;;;;10118358;28;20504;-69
2023/06/11 07:31:36;;;;;;;13.40;12.02;;;;;;;;;;10135429;28;20468;-69
2023/06/11 07:36:30;;;;;;;13.98;11.88;;;;;;;;;;10143429;28;20504;-69
2023/06/11 07:41:23;;;;;;;14.75;11.50;;;;;;;;;;10149297;28;20057;-69
2023/06/11 07:46:17;;;;;;;17.15;13.30;;;;;;;;;;10150480;28;20507;-69
2023/06/11 07:51:11;;;;;;;16.55;13.88;;;;;;;;;;10121893;28;20094;-70
2023/06/11 07:56:04;;;;;;;15.40;10.55;;;;;;;;;;10142453;28;20049;-70
2023/06/11 08:00:58;;;;;;;10.60;9.32;;;;;;;;;;10145519;28;20065;-70
2023/06/11 08:05:53;;;;;;;12.82;9.63;;;;;;;;;;10131712;28;20045;-69
2023/06/11 08:10:50;;;;;;;13.35;9.10;;;;;;;;;;10122062;28;20076;-70
2023/06/11 08:15:43;;;;;;;13.82;9.90;;;;;;;;;;10150843;28;20087;-70
2023/06/11 08:20:37;;;;;;;15.98;10.20;;;;;;;;;;10149966;28;20418;-70
2023/06/11 08:25:31;;;;;;;9.43;8.43;;;;;;;;;;10148077;28;20118;-70
2023/06/11 08:30:25;;;;;;;11.23;8.05;;;;;;;;;;10150837;28;20053;-70
2023/06/11 08:35:20;;;;;;;13.23;9.75;;;;;;;;;;10138113;28;20131;-70
2023/06/11 08:40:15;;;;;;;18.48;8.25;;;;;;;;;;10151241;28;20492;-70
2023/06/11 08:45:10;;;;;;;15.13;8.73;;;;;;;;;;10149691;28;20051;-71
2023/06/11 08:50:04;;;;;;;9.25;7.00;;;;;;;;;;10148378;28;20052;-70
2023/06/11 08:54:59;;;;;;;10.90;6.90;;;;;;;;;;10137876;28;20049;-70
2023/06/11 08:59:53;;;;;;;9.27;6.20;;;;;;;;;;10145298;28;20062;-69
2023/06/11 09:04:47;;;;;;;8.10;5.82;;;;;;;;;;10135190;28;20070;-70
2023/06/11 09:09:41;;;;;;;5.68;4.82;;;;;;;;;;10149460;28;20064;-71
2023/06/11 09:14:35;;;;;;;6.40;4.75;;;;;;;;;;10148494;28;20106;-70
2023/06/11 09:19:28;;;;;;;7.03;4.50;;;;;;;;;;10147160;28;20055;-71
2023/06/11 09:24:23;;;;;;;6.68;5.88;;;;;;;;;;10148850;28;20059;-70
2023/06/11 09:29:17;;;;;;;12.23;5.07;;;;;;;;;;10135781;28;20487;-70
2023/06/11 09:34:12;;;;;;;7.85;7.05;;;;;;;;;;10145647;28;20060;-70
2023/06/11 09:39:08;;;;;;;7.53;6.78;;;;;;;;;;10147784;28;20101;-70
2023/06/11 09:44:02;;;;;;;6.88;5.90;;;;;;;;;;10147688;28;20052;-70
2023/06/11 09:48:55;;;;;;;8.18;5.53;;;;;;;;;;10134136;28;20057;-71
2023/06/11 09:53:51;;;;;;;11.30;4.88;;;;;;;;;;10136494;28;20115;-71
2023/06/11 09:58:48;;;;;;;4.53;3.95;;;;;;;;;;10134365;28;20061;-71
2023/06/11 10:03:42;;;;;;;7.47;4.30;;;;;;;;;;10144767;28;20114;-71
2023/06/11 10:08:37;;;;;;;5.28;3.65;;;;;;;;;;10146610;28;20057;-72
2023/06/11 10:13:34;;;;;;;4.18;3.50;;;;;;;;;;10146261;28;20052;-72
2023/06/11 10:18:30;;;;;;;9.23;4.50;;;;;;;;;;10145932;28;20055;-72
2023/06/11 10:23:37;;;;;;;4.87;3.40;;;;;;;;;;10146803;28;20123;-71
2023/06/11 10:28:37;;;;;;;6.10;3.67;;;;;;;;;;10134907;28;20071;-72
2023/06/11 10:33:43;;;;;;;4.25;3.53;;;;;;;;;;10117043;28;20048;-72
2023/06/11 10:38:38;;;;;;;;;;;;;;;;;;10116609;28;20049;-73
2023/06/11 10:43:32;;;;;;;6.78;3.60;;;;;;;;;;10116176;28;19920;-72
2023/06/11 10:48:30;;;;;;;5.18;3.03;;;;;;;;;;10123168;28;20078;-72
2023/06/11 10:53:36;;;;;;;3.88;2.65;;;;;;;;;;10128011;28;20055;-73
2023/06/11 10:58:29;;;;;;;3.13;2.72;;;;;;;;;;10138886;28;20426;-72
2023/06/11 11:03:24;;;;;;;7.68;3.65;;;;;;;;;;10126242;28;20064;-73
2023/06/11 11:08:18;;;;;;;;;;;;;;;;;;10139685;28;20052;-72
2023/06/11 11:13:16;;;;;;;5.85;2.72;;;;;;;;;;10147474;28;19981;-72
2023/06/11 11:18:09;;;;;;;9.20;3.80;;;;;;;;;;10153037;28;20045;-72
2023/06/11 11:23:04;;;;;;;6.55;3.97;;;;;;;;;;10152885;28;20083;-72
2023/06/11 11:27:58;;;;;;;7.40;6.10;;;;;;;;;;10152762;28;20518;-72
2023/06/11 11:32:52;;;;;;;6.28;4.68;;;;;;;;;;10152623;28;20044;-70
2023/06/11 11:37:46;;;;;;;8.48;3.75;;;;;;;;;;10151521;28;20056;-70
2023/06/11 11:42:50;;;;;;;4.93;3.40;;;;;;;;;;10152029;28;20052;-70
2023/06/11 11:47:46;;;;;;;4.30;3.55;;;;;;;;;;10148488;28;20489;-72
2023/06/11 11:52:40;;;;;;;5.18;3.45;;;;;;;;;;10137800;28;20074;-70
2023/06/11 11:57:38;;;;;;;6.65;4.00;;;;;;;;;;10152107;28;20388;-70
2023/06/11 12:02:32;;;;;;;3.88;3.50;;;;;;;;;;10151182;28;20418;-70
2023/06/11 12:07:26;;;;;;;7.47;3.97;;;;;;;;;;10152515;28;20102;-72
2023/06/11 12:12:21;;;;;;;4.25;3.58;;;;;;;;;;10152031;28;20064;-72
2023/06/11 12:17:15;;;;;;;4.87;3.40;;;;;;;;;;10151202;28;20055;-72
2023/06/11 12:22:10;;;;;;;7.25;2.90;;;;;;;;;;10151213;28;20055;-72
2023/06/11 12:27:04;;;;;;;5.73;2.90;;;;;;;;;;10150442;28;20052;-73
2023/06/11 12:32:11;;;;;;;4.93;2.85;;;;;;;;;;10148386;28;20041;-72
2023/06/11 12:37:06;;;;;;;3.38;2.72;;;;;;;;;;10149391;28;20056;-72
2023/06/11 12:42:00;;;;;;;3.35;2.75;;;;;;;;;;10150007;28;20384;-72
2023/06/11 12:46:53;;;;;;;8.90;2.70;;;;;;;;;;10138152;28;20132;-72
2023/06/11 12:51:48;;;;;;;5.57;2.80;;;;;;;;;;10136442;28;20054;-70
2023/06/11 12:56:42;;;;;;;2.60;2.40;;;;;;;;;;10137266;28;20053;-70
2023/06/11 13:01:36;;;;;;;4.20;2.37;;;;;;;;;;10149405;28;20110;-70
2023/06/11 13:06:29;;;;;;;4.10;2.63;;;;;;;;;;10147496;28;20065;-70
2023/06/11 13:11:24;;;;;;;6.03;3.70;;;;;;;;;;10149315;28;20499;-70
2023/06/11 13:16:17;;;;;;;4.43;2.05;;;;;;;;;;10145746;28;20430;-70
2023/06/11 13:21:11;;;;;;;2.60;2.40;;;;;;;;;;10148380;28;20135;-70
2023/06/11 13:26:05;;;;;;;2.73;2.17;;;;;;;;;;10148216;28;20068;-70
2023/06/11 13:30:59;;;;;;;2.20;1.98;;;;;;;;;;10148403;28;20058;-70
2023/06/11 13:35:52;;;;;;;7.43;3.03;;;;;;;;;;10147328;28;20182;-70
2023/06/11 13:40:46;;;;;;;3.43;2.23;;;;;;;;;;10148049;28;20052;-70
2023/06/11 13:45:45;;;;;;;3.97;2.27;;;;;;;;;;10149013;28;20052;-70
2023/06/11 13:50:40;;;;;;;8.20;2.55;;;;;;;;;;10123758;28;20404;-70
2023/06/11 13:55:34;;;;;;;;;;;;;;;;;;10135269;28;20059;-70
2023/06/11 14:00:28;;;;;;;1.98;1.75;;;;;;;;;;10135517;28;19968;-70
2023/06/11 14:05:24;;;;;;;9.95;3.38;;;;;;;;;;10146695;28;20533;-69
2023/06/11 14:10:17;;;;;;;4.75;2.85;;;;;;;;;;10146233;28;20070;-70
2023/06/11 14:15:11;;;;;;;2.75;2.55;;;;;;;;;;10146481;28;20050;-69
2023/06/11 14:20:06;;;;;;;3.10;2.22;;;;;;;;;;10143197;28;20049;-69
2023/06/11 14:25:00;;;;;;;3.15;2.75;;;;;;;;;;10146060;28;20131;-72
2023/06/11 14:29:53;;;;;;;2.72;2.53;;;;;;;;;;10138602;28;20599;-72
2023/06/11 14:34:46;;;;;;;3.90;2.92;;;;;;;;;;10146159;28;20057;-72
2023/06/11 14:39:40;;;;;;;2.75;2.17;;;;;;;;;;10138778;28;20053;-71
2023/06/11 14:44:34;;;;;;;3.15;2.80;;;;;;;;;;10145650;28;20056;-71
2023/06/11 14:49:28;;;;;;;4.22;2.47;;;;;;;;;;10112567;28;20103;-71
2023/06/11 14:54:21;;;;;;;8.60;2.53;;;;;;;;;;10111096;28;20044;-70
2023/06/11 14:59:14;;;;;;;4.10;2.72;;;;;;;;;;10114362;28;20570;-71
2023/06/11 15:04:11;;;;;;;4.07;2.67;;;;;;;;;;10128264;28;20044;-71
2023/06/11 15:09:04;;;;;;;3.50;2.30;;;;;;;;;;10118284;28;20496;-71
2023/06/11 15:13:58;;;;;;;2.72;2.40;;;;;;;;;;10111571;28;20136;-72
2023/06/11 15:18:52;;;;;;;3.70;3.05;;;;;;;;;;10140011;28;20044;-71
2023/06/11 15:23:45;;;;;;;3.45;2.90;;;;;;;;;;10132622;28;20055;-70
2023/06/11 15:28:39;;;;;;;3.22;2.90;;;;;;;;;;10112064;28;20057;-70
2023/06/11 15:33:34;;;;;;;4.03;2.60;;;;;;;;;;10127931;28;20131;-70
2023/06/11 15:38:27;;;;;;;3.42;2.50;;;;;;;;;;10144524;28;20076;-70
2023/06/11 15:43:21;;;;;;;2.90;2.28;;;;;;;;;;10143842;28;20048;-70
2023/06/11 15:48:14;;;;;;;2.63;2.25;;;;;;;;;;10123861;28;20060;-71
2023/06/11 15:53:09;;;;;;;3.15;2.67;;;;;;;;;;10126305;28;20410;-70
2023/06/11 15:58:02;;;;;;;3.40;2.42;;;;;;;;;;10144640;28;20052;-70
2023/06/11 16:03:01;;;;;;;3.80;2.20;;;;;;;;;;10143913;28;20076;-70
2023/06/11 16:07:54;;;;;;;2.50;2.30;;;;;;;;;;10129585;28;20080;-70
2023/06/11 16:12:48;;;;;;;2.15;2.05;;;;;;;;;;10138349;28;20580;-70
2023/06/11 16:17:42;;;;;;;2.72;2.30;;;;;;;;;;10150705;28;20090;-70
2023/06/11 16:22:39;;;;;;;3.78;2.45;;;;;;;;;;10150366;28;20055;-70
2023/06/11 16:27:32;;;;;;;2.75;2.40;;;;;;;;;;10137984;28;20123;-70
2023/06/11 16:32:26;;;;;;;2.63;2.42;;;;;;;;;;10137750;28;20127;-70
2023/06/11 16:37:20;;;;;;;7.82;2.70;;;;;;;;;;10137067;28;20135;-70
2023/06/11 16:42:15;;;;;;;2.75;1.95;;;;;;;;;;10150010;28;20056;-70
2023/06/11 16:47:08;;;;;;;3.05;1.92;;;;;;;;;;10136442;28;20385;-70
2023/06/11 16:52:03;;;;;;;2.35;2.13;;;;;;;;;;10148597;28;20044;-69
2023/06/11 16:56:57;;;;;;;2.50;2.13;;;;;;;;;;10150124;28;20056;-70
2023/06/11 17:01:50;;;;;;;3.10;1.92;;;;;;;;;;10149165;28;20159;-70
2023/06/11 17:06:44;;;;;;;5.13;2.13;;;;;;;;;;10149234;28;20128;-69
2023/06/11 17:11:38;;;;;;;4.63;2.75;;;;;;;;;;10148164;28;20143;-69
2023/06/11 17:16:32;;;;;;;3.85;2.15;;;;;;;;;;10148501;28;20449;-70
2023/06/11 17:21:26;;;;;;;3.88;2.42;;;;;;;;;;10148413;28;20063;-70
2023/06/11 17:26:20;;;;;;;2.80;2.33;;;;;;;;;;10148609;28;20380;-70
2023/06/11 17:31:14;;;;;;;2.55;2.35;;;;;;;;;;10147980;28;20053;-69
2023/06/11 17:36:08;;;;;;;3.65;2.60;;;;;;;;;;10147960;28;20059;-69
2023/06/11 17:41:01;;;;;;;3.53;2.25;;;;;;;;;;10146454;28;20056;-70
2023/06/11 17:45:56;;;;;;;2.67;2.47;;;;;;;;;;10134458;28;20044;-69
2023/06/11 17:50:53;;;;;;;3.53;2.80;;;;;;;;;;10146654;28;20098;-69
2023/06/11 17:55:46;;;;;;;5.00;2.70;;;;;;;;;;10146843;28;20491;-70
2023/06/11 18:00:43;;;;;;;2.33;2.05;;;;;;;;;;10136032;28;20064;-70
2023/06/11 18:05:36;;;;;;;2.80;2.60;;;;;;;;;;10147233;28;20056;-70
2023/06/11 18:10:30;;;;;;;3.78;3.33;;;;;;;;;;10145375;28;20137;-70
2023/06/11 18:15:23;;;;;;;2.92;2.60;;;;;;;;;;10145158;28;20423;-70
2023/06/11 18:20:23;;;;;;;3.25;2.55;;;;;;;;;;10129669;28;20049;-70
2023/06/11 18:25:18;;;;;;;4.65;2.40;;;;;;;;;;10130337;28;20052;-69
2023/06/11 18:30:12;;;;;;;4.80;2.47;;;;;;;;;;10144934;28;20423;-69
2023/06/11 18:35:06;;;;;;;5.75;3.25;;;;;;;;;;10146031;28;20114;-70
2023/06/11 18:40:01;;;;;;;4.07;3.67;;;;;;;;;;10145939;28;20499;-72
2023/06/11 18:44:54;;;;;;;16.38;4.22;;;;;;;;;;10133534;28;20431;-71
2023/06/11 18:49:48;;;;;;;5.13;2.50;;;;;;;;;;10145579;28;20048;-71
2023/06/11 18:54:41;;;;;;;4.15;3.15;;;;;;;;;;10145463;28;20423;-81
2023/06/11 18:59:36;;;;;;;3.08;2.78;;;;;;;;;;10145987;28;20064;-75
2023/06/11 19:04:29;;;;;;;3.42;2.33;;;;;;;;;;10119929;28;20052;-78
2023/06/11 19:09:23;;;;;;;2.88;2.63;;;;;;;;;;10145232;28;20560;-80
2023/06/11 19:14:17;;;;;;;3.90;2.83;;;;;;;;;;10133239;28;20392;-79
2023/06/11 19:19:11;;;;;;;2.65;2.45;;;;;;;;;;10145209;28;20123;-69
2023/06/11 19:24:07;;;;;;;2.92;2.60;;;;;;;;;;10144390;28;20057;-69
2023/06/11 19:29:00;;;;;;;3.17;2.92;;;;;;;;;;10143858;28;20098;-69
2023/06/11 19:33:54;;;;;;;3.80;2.50;;;;;;;;;;10138256;28;20064;-69
2023/06/11 19:38:48;;;;;;;2.80;2.50;;;;;;;;;;10137246;28;20464;-69
2023/06/11 19:43:41;;;;;;;9.60;3.38;;;;;;;;;;10139233;28;20060;-69
2023/06/11 19:48:35;;;;;;;6.07;3.53;;;;;;;;;;10152076;28;20397;-76
2023/06/11 19:53:28;;;;;;;3.30;3.00;;;;;;;;;;10140380;28;20380;-73
2023/06/11 19:58:21;;;;;;;3.45;3.08;;;;;;;;;;10152031;28;20086;-67
2023/06/11 20:03:15;;;;;;;4.43;2.65;;;;;;;;;;10151324;28;20126;-68
2023/06/11 20:08:13;;;;;;;4.30;3.22;;;;;;;;;;10152145;28;20056;-68
2023/06/11 20:13:06;;;;;;;;;;;;;;;;;;10151105;28;20051;-68
2023/06/11 20:18:00;;;;;;;4.00;3.70;;;;;;;;;;10140480;28;20010;-68
2023/06/11 20:22:53;;;;;;;5.22;3.40;;;;;;;;;;10151109;28;20579;-68
2023/06/11 20:27:47;;;;;;;5.00;3.85;;;;;;;;;;10149739;28;20438;-68
2023/06/11 20:32:42;;;;;;;5.70;4.00;;;;;;;;;;10150315;28;20067;-67
2023/06/11 20:37:36;;;;;;;5.00;4.00;;;;;;;;;;10140516;28;20048;-71
2023/06/11 20:42:29;;;;;;;3.65;3.35;;;;;;;;;;10114640;28;20411;-71
2023/06/11 20:47:24;;;;;;;6.70;4.13;;;;;;;;;;10124676;28;20400;-71
2023/06/11 20:52:19;;;;;;;4.13;3.72;;;;;;;;;;10111007;28;20488;-70
2023/06/11 20:57:13;;;;;;;4.90;3.97;;;;;;;;;;10132176;28;20543;-78
2023/06/11 21:02:06;;;;;;;6.28;3.25;;;;;;;;;;10137111;28;20056;-76
2023/06/11 21:07:00;;;;;;;5.05;4.05;;;;;;;;;;10129140;28;20466;-73
2023/06/11 21:11:57;;;;;;;6.67;4.10;;;;;;;;;;10113914;28;20052;-73
2023/06/11 21:16:50;;;;;;;11.43;5.05;;;;;;;;;;10134686;28;20109;-68
2023/06/11 21:21:44;;;;;;;5.20;4.55;;;;;;;;;;10024729;28;20069;-68
2023/06/11 21:26:38;;;;;;;5.32;4.65;;;;;;;;;;10024577;28;20096;-70
2023/06/11 21:31:31;;;;;;;6.47;5.30;;;;;;;;;;10024356;28;20057;-68
2023/06/11 21:36:25;;;;;;;6.13;5.53;;;;;;;;;;10028833;28;20045;-68
2023/06/11 21:41:19;;;;;;;6.28;5.05;;;;;;;;;;10133318;28;20398;-68
2023/06/11 21:46:12;;;;;;;6.85;5.93;;;;;;;;;;10147018;28;20052;-68
2023/06/11 21:51:06;;;;;;;8.63;5.72;;;;;;;;;;10128077;28;20053;-68
2023/06/11 21:56:00;;;;;;;5.75;5.15;;;;;;;;;;10140813;28;20052;-67
2023/06/11 22:00:54;;;;;;;7.78;5.07;;;;;;;;;;10143775;28;20064;-67
2023/06/11 22:05:47;;;;;;;5.65;4.57;;;;;;;;;;10147152;28;20044;-68
2023/06/11 22:10:41;;;;;;;7.47;4.90;;;;;;;;;;10145548;28;20044;-75
2023/06/11 22:15:34;;;;;;;7.85;5.13;;;;;;;;;;10146282;28;20056;-75
2023/06/11 22:20:27;;;;;;;9.38;4.95;;;;;;;;;;10146448;28;20055;-69
2023/06/11 22:25:20;;;;;;;8.27;5.10;;;;;;;;;;10132007;28;20055;-69
2023/06/11 22:30:15;;;;;;;6.93;4.40;;;;;;;;;;10146253;28;20056;-69
2023/06/11 22:35:09;;;;;;;4.65;4.15;;;;;;;;;;10145883;28;20055;-71
2023/06/11 22:40:06;;;;;;;6.20;5.22;;;;;;;;;;10132133;28;20056;-70
2023/06/11 22:44:59;;;;;;;5.05;4.50;;;;;;;;;;10136900;28;20094;-74
2023/06/11 22:49:53;;;;;;;5.70;5.20;;;;;;;;;;10140251;28;20051;-70
2023/06/11 22:54:48;;;;;;;5.05;4.65;;;;;;;;;;10100802;28;20057;-76
2023/06/11 22:59:41;;;;;;;5.60;4.32;;;;;;;;;;10130584;28;20052;-77
2023/06/11 23:04:40;;;;;;;5.70;3.35;;;;;;;;;;10113282;28;20752;-74
2023/06/11 23:09:38;;;;;;;5.57;3.35;;;;;;;;;;10106620;28;20067;-78
2023/06/11 23:14:31;;;;;;;5.20;3.28;;;;;;;;;;10117185;28;20083;-69
2023/06/11 23:19:25;;;;;;;4.60;4.20;;;;;;;;;;10114701;28;20049;-69
2023/06/11 23:24:21;;;;;;;6.28;4.22;;;;;;;;;;10119429;28;20392;-68
2023/06/11 23:29:17;;;;;;;5.38;4.30;;;;;;;;;;10115267;28;20111;-71
2023/06/11 23:34:11;;;;;;;5.72;3.95;;;;;;;;;;10114949;28;20044;-76
2023/06/11 23:39:04;;;;;;;3.92;3.50;;;;;;;;;;10105170;28;20087;-80
2023/06/11 23:43:57;;;;;;;8.05;5.18;;;;;;;;;;10107302;28;20048;-82
2023/06/11 23:48:51;;;;;;;8.10;4.40;;;;;;;;;;10113647;28;20076;-82
2023/06/11 23:53:44;;;;;;;6.03;5.35;;;;;;;;;;10109170;28;20049;-79
2023/06/11 23:58:38;;;;;;;5.03;4.30;;;;;;;;;;10089024;28;20061;-82
